createdAt,value
2019-05-25T16:12:07.879Z,18.67
2019-05-25T16:14:35.370Z,19.21
2019-05-25T16:17:02.716Z,19.85
2019-05-25T16:19:33.513Z,20.14
2019-05-25T16:22:01.070Z,20.50
2019-05-25T16:24:28.422Z,20.20
2019-05-25T16:26:56.162Z,20.82
2019-05-25T16:29:24.117Z,20.96
2019-05-25T16:31:52.457Z,21.15
2019-05-25T16:34:19.741Z,21.44
2019-05-25T16:36:47.036Z,21.10
2019-05-25T16:39:14.407Z,20.50
2019-05-25T16:41:41.837Z,20.50
2019-05-25T16:44:09.180Z,20.64
2019-05-25T16:46:36.461Z,20.52
2019-05-25T16:49:03.871Z,20.52
2019-05-25T16:51:31.163Z,20.58
2019-05-25T16:53:58.469Z,20.96
2019-05-25T16:56:25.758Z,21.30
2019-05-25T16:58:55.055Z,20.87
2019-05-25T17:01:22.817Z,20.80
2019-05-25T17:03:51.275Z,20.56
2019-05-25T17:06:18.633Z,20.90
2019-05-25T17:08:45.919Z,21.33
2019-05-25T17:11:14.225Z,22.26
2019-05-25T17:13:41.506Z,23.03
2019-05-25T17:16:09.060Z,22.92
2019-05-25T17:18:36.686Z,22.48
2019-05-25T17:21:03.997Z,22.08
2019-05-25T17:23:31.429Z,21.93
2019-05-25T17:25:58.856Z,22.07
2019-05-25T17:28:26.152Z,22.09
2019-05-25T17:30:53.507Z,21.55
2019-05-25T17:33:20.784Z,21.36
2019-05-25T17:35:48.273Z,21.02
2019-05-25T17:38:18.400Z,20.82
2019-05-25T17:40:46.079Z,20.93
2019-05-25T17:43:13.487Z,21.23
2019-05-25T17:45:40.777Z,21.47
2019-05-25T17:48:08.065Z,21.47
2019-05-25T17:50:35.433Z,20.46
2019-05-25T17:53:03.074Z,20.44
2019-05-25T17:55:30.358Z,19.73
2019-05-25T17:57:58.770Z,19.25
2019-05-25T18:00:49.390Z,18.89
2019-05-25T18:03:16.894Z,18.89
2019-05-25T18:05:46.336Z,18.92
2019-05-25T18:08:13.636Z,19.04
2019-05-25T18:10:52.911Z,19.16
2019-05-25T18:13:10.132Z,19.27
2019-05-25T18:15:37.442Z,19.11
2019-05-25T18:18:05.058Z,18.99
2019-05-25T18:20:32.455Z,18.95
2019-05-25T18:22:59.843Z,18.65
2019-05-25T18:25:27.128Z,18.31
2019-05-25T18:27:54.514Z,18.07
2019-05-25T18:30:23.693Z,17.76
2019-05-25T18:32:51.321Z,17.74
2019-05-25T18:35:20.238Z,17.46
2019-05-25T18:37:49.352Z,17.28
2019-05-25T18:40:19.056Z,17.25
2019-05-25T18:42:48.424Z,17.37
2019-05-25T18:45:17.568Z,17.39
2019-05-25T18:47:46.798Z,17.14
2019-05-25T18:50:16.309Z,17.10
2019-05-25T18:52:46.579Z,17.01
2019-05-25T18:55:15.873Z,16.92
2019-05-25T18:57:45.767Z,16.80
2019-05-25T19:00:16.607Z,16.71
2019-05-25T19:02:45.181Z,16.45
2019-05-25T19:05:13.859Z,16.19
2019-05-25T19:07:46.823Z,15.94
2019-05-25T19:10:17.699Z,15.69
2019-05-25T19:12:45.371Z,15.39
2019-05-25T19:15:15.796Z,15.10
2019-05-25T19:17:45.008Z,14.88
2019-05-25T19:20:20.670Z,14.70
2019-05-25T19:22:46.787Z,14.48
2019-05-25T19:25:19.181Z,14.35
2019-05-25T19:27:47.352Z,14.07
2019-05-25T19:30:18.281Z,13.92
2019-05-25T19:32:47.367Z,13.60
2019-05-25T19:35:14.742Z,13.36
2019-05-25T19:37:43.499Z,13.24
2019-05-25T19:40:11.877Z,13.02
2019-05-25T19:42:39.681Z,12.79
2019-05-25T19:45:18.246Z,12.59
2019-05-25T19:47:47.100Z,12.43
2019-05-25T19:50:19.399Z,12.30
2019-05-25T19:52:48.543Z,12.23
2019-05-25T19:55:18.316Z,12.06
2019-05-25T19:57:51.501Z,11.88
2019-05-25T20:00:22.242Z,11.77
2019-05-25T20:02:51.516Z,11.62
2019-05-25T20:05:20.737Z,11.55
2019-05-25T20:07:51.057Z,11.47
2019-05-25T20:10:20.552Z,11.58
2019-05-25T20:12:50.041Z,11.50
2019-05-25T20:15:23.779Z,11.43
2019-05-25T20:17:52.761Z,11.19
2019-05-25T20:20:20.538Z,11.08
2019-05-25T20:22:47.776Z,11.01
2019-05-25T20:25:15.237Z,10.94
2019-05-25T20:27:42.625Z,10.79
2019-05-25T20:30:10.119Z,10.64
2019-05-25T20:32:37.393Z,10.45
2019-05-25T20:35:04.858Z,10.54
2019-05-25T20:37:33.004Z,10.46
2019-05-25T20:40:00.371Z,10.37
2019-05-25T20:42:27.624Z,10.34
2019-05-25T20:44:54.860Z,10.38
2019-05-25T20:47:22.164Z,10.30
2019-05-25T20:49:49.386Z,10.20
2019-05-25T20:52:16.674Z,10.14
2019-05-25T20:54:44.077Z,10.08
2019-05-25T20:57:11.338Z,10.24
2019-05-25T20:59:38.719Z,10.31
2019-05-25T21:02:06.033Z,10.14
2019-05-25T21:04:34.395Z,9.97
2019-05-25T21:07:01.764Z,9.95
2019-05-25T21:09:29.130Z,9.85
2019-05-25T21:11:56.535Z,10.01
2019-05-25T21:14:23.888Z,9.98
2019-05-25T21:16:51.180Z,9.91
2019-05-25T21:19:18.520Z,9.76
2019-05-25T21:21:45.860Z,9.69
2019-05-25T21:24:13.230Z,9.57
2019-05-25T21:26:40.541Z,9.51
2019-05-25T21:29:07.807Z,9.53
2019-05-25T21:31:35.091Z,9.53
2019-05-25T21:34:02.504Z,9.67
2019-05-25T21:36:30.092Z,9.67
2019-05-25T21:38:57.506Z,9.59
2019-05-25T21:41:24.882Z,9.49
2019-05-25T21:43:52.106Z,9.58
2019-05-25T21:46:20.496Z,9.57
2019-05-25T21:48:47.747Z,9.52
2019-05-25T21:51:15.032Z,9.40
2019-05-25T21:53:42.274Z,9.37
2019-05-25T21:56:09.597Z,9.32
2019-05-25T21:58:36.869Z,9.33
2019-05-25T22:01:04.940Z,9.31
2019-05-25T22:03:33.293Z,9.23
2019-05-25T22:06:00.729Z,9.16
2019-05-25T22:08:27.970Z,9.18
2019-05-25T22:10:55.341Z,9.19
2019-05-25T22:13:28.441Z,9.05
2019-05-25T22:15:51.925Z,9.08
2019-05-25T22:18:19.226Z,9.00
2019-05-25T22:20:46.675Z,9.15
2019-05-25T22:23:13.966Z,9.01
2019-05-25T22:25:41.710Z,9.00
2019-05-25T22:28:08.987Z,9.14
2019-05-25T22:30:36.212Z,8.95
2019-05-25T22:33:03.610Z,8.96
2019-05-25T22:35:30.890Z,9.00
2019-05-25T22:37:58.155Z,8.90
2019-05-25T22:40:25.624Z,8.86
2019-05-25T22:42:52.890Z,8.62
2019-05-25T22:45:20.149Z,8.54
2019-05-25T22:47:47.458Z,8.60
2019-05-25T22:50:14.730Z,8.52
2019-05-25T22:52:41.994Z,8.50
2019-05-25T22:55:10.146Z,8.43
2019-05-25T22:57:37.438Z,8.54
2019-05-25T23:00:06.369Z,8.59
2019-05-25T23:02:33.703Z,8.60
2019-05-25T23:05:01.005Z,8.62
2019-05-25T23:07:28.341Z,8.68
2019-05-25T23:09:55.569Z,8.67
2019-05-25T23:12:22.938Z,8.56
2019-05-25T23:14:50.187Z,8.59
2019-05-25T23:17:17.407Z,8.76
2019-05-25T23:19:44.647Z,8.88
2019-05-25T23:22:11.931Z,8.81
2019-05-25T23:24:39.215Z,8.72
2019-05-25T23:27:06.461Z,8.66
2019-05-25T23:29:33.707Z,8.77
2019-05-25T23:32:01.113Z,8.78
2019-05-25T23:34:28.348Z,8.83
2019-05-25T23:36:55.723Z,8.84
2019-05-25T23:39:22.998Z,8.89
2019-05-25T23:41:50.272Z,8.78
2019-05-25T23:44:18.114Z,8.79
2019-05-25T23:46:45.379Z,8.67
2019-05-25T23:49:12.654Z,8.71
2019-05-25T23:51:39.970Z,8.68
2019-05-25T23:54:07.286Z,8.59
2019-05-25T23:56:34.675Z,8.48
2019-05-25T23:59:02.024Z,8.56
